sensor_id;sensor_type;location;lat;lon;timestamp;temperature;humidity
8914;DHT22;4492;48.736;9.092;2023-03-01T00:01:00;-3.20;99.90
8914;DHT22;4492;48.736;9.092;2023-03-01T00:03:25;-3.20;99.90
8914;DHT22;4492;48.736;9.092;2023-03-01T00:05:51;-3.30;99.90
8914;DHT22;4492;48.736;9.092;2023-03-01T00:08:16;-3.30;99.90
8914;DHT22;4492;48.736;9.092;2023-03-01T00:10:42;-3.30;99.90
8914;DHT22;4492;48.736;9.092;2023-03-01T00:13:07;-3.40;99.90
8914;DHT22;4492;48.736;9.092;2023-03-01T00:15:33;-3.40;99.90
8914;DHT22;4492;48.736;9.092;2023-03-01T00:18:00;-3.40;99.90
8914;DHT22;4492;48.736;9.092;2023-03-01T00:20:25;-3.40;99.90
8914;DHT22;4492;48.736;9.092;2023-03-01T00:22:51;-3.40;99.90
8914;DHT22;4492;48.736;9.092;2023-03-01T00:25:16;-3.50;99.90
8914;DHT22;4492;48.736;9.092;2023-03-01T00:27:42;-3.40;99.90
8914;DHT22;4492;48.736;9.092;2023-03-01T00:30:09;-3.40;99.90
8914;DHT22;4492;48.736;9.092;2023-03-01T00:32:35;-3.50;99.90
8914;DHT22;4492;48.736;9.092;2023-03-01T00:35:00;-3.50;99.90
8914;DHT22;4492;48.736;9.092;2023-03-01T00:37:26;-3.60;99.90
8914;DHT22;4492;48.736;9.092;2023-03-01T00:39:51;-3.70;99.90
8914;DHT22;4492;48.736;9.092;2023-03-01T00:42:17;-3.60;99.90
8914;DHT22;4492;48.736;9.092;2023-03-01T00:44:43;-3.80;99.90
8914;DHT22;4492;48.736;9.092;2023-03-01T00:47:08;-3.80;99.90
8914;DHT22;4492;48.736;9.092;2023-03-01T00:49:34;-3.80;99.90
8914;DHT22;4492;48.736;9.092;2023-03-01T00:51:59;-3.90;99.90
8914;DHT22;4492;48.736;9.092;2023-03-01T00:54:25;-3.90;99.90
8914;DHT22;4492;48.736;9.092;2023-03-01T00:56:51;-3.90;99.90
8914;DHT22;4492;48.736;9.092;2023-03-01T00:59:16;-3.90;99.90
8914;DHT22;4492;48.736;9.092;2023-03-01T01:01:42;-3.90;99.90
8914;DHT22;4492;48.736;9.092;2023-03-01T01:04:10;-3.90;99.90
8914;DHT22;4492;48.736;9.092;2023-03-01T01:06:38;-3.90;99.90
8914;DHT22;4492;48.736;9.092;2023-03-01T01:09:06;-3.90;99.90
8914;DHT22;4492;48.736;9.092;2023-03-01T01:11:33;-3.90;99.90
8914;DHT22;4492;48.736;9.092;2023-03-01T01:13:59;-3.80;99.90
8914;DHT22;4492;48.736;9.092;2023-03-01T01:16:26;-3.80;99.90
8914;DHT22;4492;48.736;9.092;2023-03-01T01:18:53;-3.80;99.90
8914;DHT22;4492;48.736;9.092;2023-03-01T01:21:21;-3.80;99.90
8914;DHT22;4492;48.736;9.092;2023-03-01T01:23:47;-3.70;99.90
8914;DHT22;4492;48.736;9.092;2023-03-01T01:26:22;-3.80;99.90
8914;DHT22;4492;48.736;9.092;2023-03-01T01:28:48;-3.70;99.90
8914;DHT22;4492;48.736;9.092;2023-03-01T01:31:15;-3.70;99.90
8914;DHT22;4492;48.736;9.092;2023-03-01T01:33:40;-3.60;99.90
8914;DHT22;4492;48.736;9.092;2023-03-01T01:36:07;-3.70;99.90
8914;DHT22;4492;48.736;9.092;2023-03-01T01:38:34;-3.70;99.90
8914;DHT22;4492;48.736;9.092;2023-03-01T01:40:59;-3.70;99.90
8914;DHT22;4492;48.736;9.092;2023-03-01T01:43:28;-3.70;99.90
8914;DHT22;4492;48.736;9.092;2023-03-01T01:46:28;-3.70;99.90
8914;DHT22;4492;48.736;9.092;2023-03-01T01:48:58;-3.70;99.90
8914;DHT22;4492;48.736;9.092;2023-03-01T01:51:29;-3.60;99.90
8914;DHT22;4492;48.736;9.092;2023-03-01T01:57:03;-3.60;99.90
8914;DHT22;4492;48.736;9.092;2023-03-01T01:59:32;-3.60;99.90
8914;DHT22;4492;48.736;9.092;2023-03-01T02:02:00;-3.60;99.90
8914;DHT22;4492;48.736;9.092;2023-03-01T02:04:28;-3.60;99.90
8914;DHT22;4492;48.736;9.092;2023-03-01T02:07:16;-3.70;99.90
8914;DHT22;4492;48.736;9.092;2023-03-01T02:09:46;-3.70;99.90
8914;DHT22;4492;48.736;9.092;2023-03-01T02:12:14;-3.70;99.90
8914;DHT22;4492;48.736;9.092;2023-03-01T02:14:40;-3.50;99.90
8914;DHT22;4492;48.736;9.092;2023-03-01T02:17:06;-3.40;99.90
8914;DHT22;4492;48.736;9.092;2023-03-01T02:22:28;-3.10;99.90
8914;DHT22;4492;48.736;9.092;2023-03-01T02:25:07;-3.00;99.90
8914;DHT22;4492;48.736;9.092;2023-03-01T02:27:51;-3.00;99.90
8914;DHT22;4492;48.736;9.092;2023-03-01T02:30:21;-2.90;99.90
8914;DHT22;4492;48.736;9.092;2023-03-01T02:32:48;-2.90;99.90
8914;DHT22;4492;48.736;9.092;2023-03-01T02:35:15;-2.90;99.90
8914;DHT22;4492;48.736;9.092;2023-03-01T02:37:42;-2.80;99.90
8914;DHT22;4492;48.736;9.092;2023-03-01T02:40:11;-2.80;99.90
8914;DHT22;4492;48.736;9.092;2023-03-01T02:42:51;-2.70;99.90
8914;DHT22;4492;48.736;9.092;2023-03-01T02:45:18;-2.70;99.90
8914;DHT22;4492;48.736;9.092;2023-03-01T02:47:43;-2.70;99.90
8914;DHT22;4492;48.736;9.092;2023-03-01T02:51:18;-2.60;99.90
8914;DHT22;4492;48.736;9.092;2023-03-01T02:53:32;-2.60;99.90
8914;DHT22;4492;48.736;9.092;2023-03-01T02:56:00;-2.60;99.90
8914;DHT22;4492;48.736;9.092;2023-03-01T02:58:26;-2.50;99.90
8914;DHT22;4492;48.736;9.092;2023-03-01T03:00:52;-2.50;99.90
8914;DHT22;4492;48.736;9.092;2023-03-01T03:03:20;-2.50;99.90
8914;DHT22;4492;48.736;9.092;2023-03-01T03:05:46;-2.50;99.90
8914;DHT22;4492;48.736;9.092;2023-03-01T03:08:14;-2.50;99.90
8914;DHT22;4492;48.736;9.092;2023-03-01T03:10:42;-2.50;99.90
8914;DHT22;4492;48.736;9.092;2023-03-01T03:13:14;-2.50;99.90
8914;DHT22;4492;48.736;9.092;2023-03-01T03:15:40;-2.50;99.90
8914;DHT22;4492;48.736;9.092;2023-03-01T03:18:10;-2.50;99.90
8914;DHT22;4492;48.736;9.092;2023-03-01T03:20:36;-2.50;99.90
8914;DHT22;4492;48.736;9.092;2023-03-01T03:23:02;-2.50;99.90
8914;DHT22;4492;48.736;9.092;2023-03-01T03:25:29;-2.50;99.90
8914;DHT22;4492;48.736;9.092;2023-03-01T03:27:55;-2.50;99.90
8914;DHT22;4492;48.736;9.092;2023-03-01T03:30:28;-2.50;99.90
8914;DHT22;4492;48.736;9.092;2023-03-01T03:32:55;-2.50;99.90
8914;DHT22;4492;48.736;9.092;2023-03-01T03:35:27;-2.50;99.90
8914;DHT22;4492;48.736;9.092;2023-03-01T03:37:55;-2.40;99.90
8914;DHT22;4492;48.736;9.092;2023-03-01T03:40:38;-2.40;99.90
8914;DHT22;4492;48.736;9.092;2023-03-01T03:43:07;-2.40;99.90
8914;DHT22;4492;48.736;9.092;2023-03-01T03:45:33;-2.40;99.90
8914;DHT22;4492;48.736;9.092;2023-03-01T03:47:59;-2.40;99.90
8914;DHT22;4492;48.736;9.092;2023-03-01T03:50:25;-2.40;99.90
8914;DHT22;4492;48.736;9.092;2023-03-01T03:52:51;-2.40;99.90
8914;DHT22;4492;48.736;9.092;2023-03-01T03:55:17;-2.30;99.90
8914;DHT22;4492;48.736;9.092;2023-03-01T03:57:45;-2.30;99.90
8914;DHT22;4492;48.736;9.092;2023-03-01T04:00:18;-2.30;99.90
8914;DHT22;4492;48.736;9.092;2023-03-01T04:02:45;-2.20;99.90
8914;DHT22;4492;48.736;9.092;2023-03-01T04:05:12;-2.20;99.90
8914;DHT22;4492;48.736;9.092;2023-03-01T04:07:40;-2.20;99.90
8914;DHT22;4492;48.736;9.092;2023-03-01T04:10:11;-2.10;99.90
8914;DHT22;4492;48.736;9.092;2023-03-01T04:12:37;-2.00;99.90
8914;DHT22;4492;48.736;9.092;2023-03-01T04:15:04;-2.00;99.90
8914;DHT22;4492;48.736;9.092;2023-03-01T04:17:45;-2.00;99.90
8914;DHT22;4492;48.736;9.092;2023-03-01T04:20:13;-2.00;99.90
8914;DHT22;4492;48.736;9.092;2023-03-01T04:22:40;-2.10;99.90
8914;DHT22;4492;48.736;9.092;2023-03-01T04:25:06;-2.10;99.90
8914;DHT22;4492;48.736;9.092;2023-03-01T04:27:33;-2.10;99.90
8914;DHT22;4492;48.736;9.092;2023-03-01T04:29:59;-2.00;99.90
8914;DHT22;4492;48.736;9.092;2023-03-01T04:32:24;-2.00;99.90
8914;DHT22;4492;48.736;9.092;2023-03-01T04:34:50;-2.00;99.90
8914;DHT22;4492;48.736;9.092;2023-03-01T04:37:15;-2.10;99.90
8914;DHT22;4492;48.736;9.092;2023-03-01T04:39:41;-2.10;99.90
8914;DHT22;4492;48.736;9.092;2023-03-01T04:42:11;-2.10;99.90
8914;DHT22;4492;48.736;9.092;2023-03-01T04:44:37;-2.10;99.90
8914;DHT22;4492;48.736;9.092;2023-03-01T04:47:03;-2.10;99.90
8914;DHT22;4492;48.736;9.092;2023-03-01T04:49:28;-2.10;99.90
8914;DHT22;4492;48.736;9.092;2023-03-01T04:51:54;-2.10;99.90
8914;DHT22;4492;48.736;9.092;2023-03-01T04:54:19;-2.00;99.90
8914;DHT22;4492;48.736;9.092;2023-03-01T04:56:45;-2.00;99.90
8914;DHT22;4492;48.736;9.092;2023-03-01T04:59:10;-1.90;99.90
8914;DHT22;4492;48.736;9.092;2023-03-01T05:01:38;-1.90;99.90
8914;DHT22;4492;48.736;9.092;2023-03-01T05:04:04;-1.90;99.90
8914;DHT22;4492;48.736;9.092;2023-03-01T05:06:31;-1.90;99.90
8914;DHT22;4492;48.736;9.092;2023-03-01T05:08:56;-1.90;99.90
8914;DHT22;4492;48.736;9.092;2023-03-01T05:11:23;-1.90;99.90
8914;DHT22;4492;48.736;9.092;2023-03-01T05:13:48;-1.90;99.90
8914;DHT22;4492;48.736;9.092;2023-03-01T05:16:15;-1.90;99.90
8914;DHT22;4492;48.736;9.092;2023-03-01T05:18:42;-1.90;99.90
8914;DHT22;4492;48.736;9.092;2023-03-01T05:21:13;-1.80;99.90
8914;DHT22;4492;48.736;9.092;2023-03-01T05:23:41;-1.80;99.90
8914;DHT22;4492;48.736;9.092;2023-03-01T05:26:07;-1.90;99.90
8914;DHT22;4492;48.736;9.092;2023-03-01T05:28:33;-1.80;99.90
8914;DHT22;4492;48.736;9.092;2023-03-01T05:30:59;-1.80;99.90
8914;DHT22;4492;48.736;9.092;2023-03-01T05:33:25;-1.80;99.90
8914;DHT22;4492;48.736;9.092;2023-03-01T05:35:51;-1.80;99.90
8914;DHT22;4492;48.736;9.092;2023-03-01T05:38:19;-1.80;99.90
8914;DHT22;4492;48.736;9.092;2023-03-01T05:40:46;-1.80;99.90
8914;DHT22;4492;48.736;9.092;2023-03-01T05:43:14;-1.80;99.90
8914;DHT22;4492;48.736;9.092;2023-03-01T05:45:41;-1.80;99.90
8914;DHT22;4492;48.736;9.092;2023-03-01T05:48:07;-1.70;99.90
8914;DHT22;4492;48.736;9.092;2023-03-01T05:50:36;-1.70;99.90
8914;DHT22;4492;48.736;9.092;2023-03-01T05:53:07;-1.60;99.90
8914;DHT22;4492;48.736;9.092;2023-03-01T05:55:35;-1.60;99.90
8914;DHT22;4492;48.736;9.092;2023-03-01T05:58:02;-1.60;99.90
8914;DHT22;4492;48.736;9.092;2023-03-01T06:00:29;-1.50;99.90
8914;DHT22;4492;48.736;9.092;2023-03-01T06:02:56;-1.40;99.90
8914;DHT22;4492;48.736;9.092;2023-03-01T06:05:22;-1.40;99.90
8914;DHT22;4492;48.736;9.092;2023-03-01T06:07:48;-1.40;99.90
8914;DHT22;4492;48.736;9.092;2023-03-01T06:10:17;-1.40;99.90
8914;DHT22;4492;48.736;9.092;2023-03-01T06:12:43;-1.40;99.90
8914;DHT22;4492;48.736;9.092;2023-03-01T06:15:14;-1.30;99.90
8914;DHT22;4492;48.736;9.092;2023-03-01T06:17:41;-1.40;99.90
8914;DHT22;4492;48.736;9.092;2023-03-01T06:20:19;-1.40;99.90
8914;DHT22;4492;48.736;9.092;2023-03-01T06:22:46;-1.40;99.90
8914;DHT22;4492;48.736;9.092;2023-03-01T06:25:14;-1.40;99.90
8914;DHT22;4492;48.736;9.092;2023-03-01T06:27:41;-1.30;99.90
8914;DHT22;4492;48.736;9.092;2023-03-01T06:30:08;-1.20;99.90
8914;DHT22;4492;48.736;9.092;2023-03-01T06:32:36;-1.10;99.90
8914;DHT22;4492;48.736;9.092;2023-03-01T06:35:03;-1.00;99.90
8914;DHT22;4492;48.736;9.092;2023-03-01T06:37:28;-1.00;99.90
8914;DHT22;4492;48.736;9.092;2023-03-01T06:39:54;-1.10;99.90
8914;DHT22;4492;48.736;9.092;2023-03-01T06:42:19;-1.10;99.90
8914;DHT22;4492;48.736;9.092;2023-03-01T06:44:45;-1.10;99.90
8914;DHT22;4492;48.736;9.092;2023-03-01T06:47:11;-1.20;99.90
8914;DHT22;4492;48.736;9.092;2023-03-01T06:49:36;-1.20;99.90
8914;DHT22;4492;48.736;9.092;2023-03-01T06:52:02;-1.20;99.90
8914;DHT22;4492;48.736;9.092;2023-03-01T06:54:28;-1.20;99.90
8914;DHT22;4492;48.736;9.092;2023-03-01T06:56:53;-1.10;99.90
8914;DHT22;4492;48.736;9.092;2023-03-01T06:59:19;-1.20;99.90
8914;DHT22;4492;48.736;9.092;2023-03-01T07:01:44;-1.20;99.90
8914;DHT22;4492;48.736;9.092;2023-03-01T07:04:11;-1.00;99.90
8914;DHT22;4492;48.736;9.092;2023-03-01T07:06:37;-1.10;99.90
8914;DHT22;4492;48.736;9.092;2023-03-01T07:09:03;-1.00;99.90
8914;DHT22;4492;48.736;9.092;2023-03-01T07:11:28;-1.00;99.90
8914;DHT22;4492;48.736;9.092;2023-03-01T07:13:54;-0.90;99.90
8914;DHT22;4492;48.736;9.092;2023-03-01T07:16:20;-0.90;99.90
8914;DHT22;4492;48.736;9.092;2023-03-01T07:18:46;-0.80;99.90
8914;DHT22;4492;48.736;9.092;2023-03-01T07:21:14;-0.90;99.90
8914;DHT22;4492;48.736;9.092;2023-03-01T07:23:40;-0.90;99.90
8914;DHT22;4492;48.736;9.092;2023-03-01T07:26:05;-1.00;99.90
8914;DHT22;4492;48.736;9.092;2023-03-01T07:28:31;-1.00;99.90
8914;DHT22;4492;48.736;9.092;2023-03-01T07:31:07;-1.10;99.90
8914;DHT22;4492;48.736;9.092;2023-03-01T07:33:33;-1.10;99.90
8914;DHT22;4492;48.736;9.092;2023-03-01T07:36:03;-1.00;99.90
8914;DHT22;4492;48.736;9.092;2023-03-01T07:38:29;-1.00;99.90
8914;DHT22;4492;48.736;9.092;2023-03-01T07:41:01;-0.90;99.90
8914;DHT22;4492;48.736;9.092;2023-03-01T07:43:29;-0.80;99.90
8914;DHT22;4492;48.736;9.092;2023-03-01T07:45:58;-0.80;99.90
8914;DHT22;4492;48.736;9.092;2023-03-01T07:48:24;-0.70;99.90
8914;DHT22;4492;48.736;9.092;2023-03-01T07:50:50;-0.70;99.90
8914;DHT22;4492;48.736;9.092;2023-03-01T07:53:15;-0.60;99.90
8914;DHT22;4492;48.736;9.092;2023-03-01T07:55:41;-0.50;99.90
8914;DHT22;4492;48.736;9.092;2023-03-01T07:58:06;-0.50;99.90
8914;DHT22;4492;48.736;9.092;2023-03-01T08:00:32;-0.40;99.90
8914;DHT22;4492;48.736;9.092;2023-03-01T08:03:01;-0.40;99.90
8914;DHT22;4492;48.736;9.092;2023-03-01T08:05:27;-0.30;99.90
8914;DHT22;4492;48.736;9.092;2023-03-01T08:07:53;-0.20;99.90
8914;DHT22;4492;48.736;9.092;2023-03-01T08:10:19;-0.20;99.90
8914;DHT22;4492;48.736;9.092;2023-03-01T08:12:45;-0.10;99.90
8914;DHT22;4492;48.736;9.092;2023-03-01T08:15:11;-0.10;99.90
8914;DHT22;4492;48.736;9.092;2023-03-01T08:17:36;0.00;99.90
8914;DHT22;4492;48.736;9.092;2023-03-01T08:20:02;0.00;99.90
8914;DHT22;4492;48.736;9.092;2023-03-01T08:22:29;0.00;99.90
8914;DHT22;4492;48.736;9.092;2023-03-01T08:24:55;0.10;99.90
8914;DHT22;4492;48.736;9.092;2023-03-01T08:27:21;0.10;99.90
8914;DHT22;4492;48.736;9.092;2023-03-01T08:29:46;0.20;99.90
8914;DHT22;4492;48.736;9.092;2023-03-01T08:32:12;0.30;99.90
8914;DHT22;4492;48.736;9.092;2023-03-01T08:34:37;0.30;99.90
8914;DHT22;4492;48.736;9.092;2023-03-01T08:37:03;0.40;99.90
8914;DHT22;4492;48.736;9.092;2023-03-01T08:39:29;0.50;99.90
8914;DHT22;4492;48.736;9.092;2023-03-01T08:41:54;0.60;99.90
8914;DHT22;4492;48.736;9.092;2023-03-01T08:44:20;0.60;99.90
8914;DHT22;4492;48.736;9.092;2023-03-01T08:46:46;0.70;99.90
8914;DHT22;4492;48.736;9.092;2023-03-01T08:49:17;0.80;99.90
8914;DHT22;4492;48.736;9.092;2023-03-01T08:51:44;0.80;99.90
8914;DHT22;4492;48.736;9.092;2023-03-01T08:54:12;0.80;99.90
8914;DHT22;4492;48.736;9.092;2023-03-01T08:56:38;0.90;99.90
8914;DHT22;4492;48.736;9.092;2023-03-01T08:59:04;0.90;99.90
8914;DHT22;4492;48.736;9.092;2023-03-01T09:01:29;0.90;99.90
8914;DHT22;4492;48.736;9.092;2023-03-01T09:03:55;0.90;99.90
8914;DHT22;4492;48.736;9.092;2023-03-01T09:06:21;0.90;99.90
8914;DHT22;4492;48.736;9.092;2023-03-01T09:08:48;1.00;99.90
8914;DHT22;4492;48.736;9.092;2023-03-01T09:11:16;1.00;99.90
8914;DHT22;4492;48.736;9.092;2023-03-01T09:13:43;1.00;99.90
8914;DHT22;4492;48.736;9.092;2023-03-01T09:16:11;1.10;99.90
8914;DHT22;4492;48.736;9.092;2023-03-01T09:18:37;1.20;99.90
8914;DHT22;4492;48.736;9.092;2023-03-01T09:21:11;1.30;99.90
8914;DHT22;4492;48.736;9.092;2023-03-01T09:23:39;1.30;99.90
8914;DHT22;4492;48.736;9.092;2023-03-01T09:26:06;1.30;99.90
8914;DHT22;4492;48.736;9.092;2023-03-01T09:28:32;1.40;99.90
8914;DHT22;4492;48.736;9.092;2023-03-01T09:30:59;1.30;99.90
8914;DHT22;4492;48.736;9.092;2023-03-01T09:33:25;1.40;99.90
8914;DHT22;4492;48.736;9.092;2023-03-01T09:36:05;1.50;99.90
8914;DHT22;4492;48.736;9.092;2023-03-01T09:38:31;1.50;99.90
8914;DHT22;4492;48.736;9.092;2023-03-01T09:40:57;1.60;99.90
8914;DHT22;4492;48.736;9.092;2023-03-01T09:43:48;1.70;99.90
8914;DHT22;4492;48.736;9.092;2023-03-01T09:46:21;1.80;99.90
8914;DHT22;4492;48.736;9.092;2023-03-01T09:48:55;1.80;99.90
8914;DHT22;4492;48.736;9.092;2023-03-01T09:51:32;1.80;99.90
8914;DHT22;4492;48.736;9.092;2023-03-01T09:53:58;1.90;99.90
8914;DHT22;4492;48.736;9.092;2023-03-01T09:56:36;1.80;99.90
8914;DHT22;4492;48.736;9.092;2023-03-01T09:59:20;1.90;99.90
8914;DHT22;4492;48.736;9.092;2023-03-01T10:02:12;2.10;99.90
8914;DHT22;4492;48.736;9.092;2023-03-01T10:04:49;2.20;99.80
8914;DHT22;4492;48.736;9.092;2023-03-01T10:07:38;2.20;99.90
8914;DHT22;4492;48.736;9.092;2023-03-01T10:10:06;2.30;99.90
8914;DHT22;4492;48.736;9.092;2023-03-01T10:12:40;2.30;99.70
8914;DHT22;4492;48.736;9.092;2023-03-01T10:15:27;2.30;99.60
8914;DHT22;4492;48.736;9.092;2023-03-01T10:18:04;2.40;99.50
8914;DHT22;4492;48.736;9.092;2023-03-01T10:20:56;2.50;99.20
8914;DHT22;4492;48.736;9.092;2023-03-01T10:23:24;2.60;99.20
8914;DHT22;4492;48.736;9.092;2023-03-01T10:29:06;2.70;98.70
8914;DHT22;4492;48.736;9.092;2023-03-01T10:31:46;2.70;98.40
8914;DHT22;4492;48.736;9.092;2023-03-01T10:34:27;2.80;98.10
8914;DHT22;4492;48.736;9.092;2023-03-01T10:36:58;3.00;97.60
8914;DHT22;4492;48.736;9.092;2023-03-01T10:39:26;3.00;97.30
8914;DHT22;4492;48.736;9.092;2023-03-01T10:44:45;3.10;97.20
8914;DHT22;4492;48.736;9.092;2023-03-01T10:49:52;3.10;96.90
8914;DHT22;4492;48.736;9.092;2023-03-01T10:52:20;3.10;97.10
8914;DHT22;4492;48.736;9.092;2023-03-01T10:55:01;3.30;96.70
8914;DHT22;4492;48.736;9.092;2023-03-01T10:57:34;3.30;96.70
8914;DHT22;4492;48.736;9.092;2023-03-01T11:00:24;3.30;96.40
8914;DHT22;4492;48.736;9.092;2023-03-01T11:03:02;3.50;96.00
8914;DHT22;4492;48.736;9.092;2023-03-01T11:05:28;3.40;96.30
8914;DHT22;4492;48.736;9.092;2023-03-01T11:08:00;3.50;96.10
8914;DHT22;4492;48.736;9.092;2023-03-01T11:10:30;3.50;96.10
8914;DHT22;4492;48.736;9.092;2023-03-01T11:13:17;3.60;96.20
8914;DHT22;4492;48.736;9.092;2023-03-01T11:15:59;3.80;95.80
8914;DHT22;4492;48.736;9.092;2023-03-01T11:18:25;3.90;95.20
8914;DHT22;4492;48.736;9.092;2023-03-01T11:20:53;3.90;95.20
8914;DHT22;4492;48.736;9.092;2023-03-01T11:23:20;3.80;95.40
8914;DHT22;4492;48.736;9.092;2023-03-01T11:25:59;3.90;95.20
8914;DHT22;4492;48.736;9.092;2023-03-01T11:28:27;3.90;94.70
8914;DHT22;4492;48.736;9.092;2023-03-01T11:31:02;4.00;95.10
8914;DHT22;4492;48.736;9.092;2023-03-01T11:36:46;4.30;94.30
8914;DHT22;4492;48.736;9.092;2023-03-01T11:39:27;4.20;94.30
8914;DHT22;4492;48.736;9.092;2023-03-01T11:42:11;4.10;94.20
8914;DHT22;4492;48.736;9.092;2023-03-01T11:44:39;4.30;93.90
8914;DHT22;4492;48.736;9.092;2023-03-01T11:49:54;4.40;93.50
8914;DHT22;4492;48.736;9.092;2023-03-01T11:52:35;4.40;94.00
8914;DHT22;4492;48.736;9.092;2023-03-01T11:55:29;4.40;94.00
8914;DHT22;4492;48.736;9.092;2023-03-01T12:01:07;4.70;93.40
8914;DHT22;4492;48.736;9.092;2023-03-01T12:04:06;4.80;93.10
8914;DHT22;4492;48.736;9.092;2023-03-01T12:17:20;5.10;92.10
8914;DHT22;4492;48.736;9.092;2023-03-01T12:20:01;5.00;92.40
8914;DHT22;4492;48.736;9.092;2023-03-01T12:25:25;5.10;92.70
8914;DHT22;4492;48.736;9.092;2023-03-01T12:30:37;5.10;92.30
8914;DHT22;4492;48.736;9.092;2023-03-01T12:33:17;5.20;92.00
8914;DHT22;4492;48.736;9.092;2023-03-01T12:35:58;5.40;92.10
8914;DHT22;4492;48.736;9.092;2023-03-01T12:38:32;5.50;91.70
8914;DHT22;4492;48.736;9.092;2023-03-01T12:41:25;5.60;91.50
8914;DHT22;4492;48.736;9.092;2023-03-01T12:49:25;5.80;91.20
8914;DHT22;4492;48.736;9.092;2023-03-01T12:51:57;5.90;91.00
8914;DHT22;4492;48.736;9.092;2023-03-01T12:54:30;5.70;91.10
8914;DHT22;4492;48.736;9.092;2023-03-01T12:56:59;5.80;93.30
8914;DHT22;4492;48.736;9.092;2023-03-01T13:02:43;6.00;90.80
8914;DHT22;4492;48.736;9.092;2023-03-01T13:05:24;6.00;90.30
8914;DHT22;4492;48.736;9.092;2023-03-01T13:07:58;6.10;91.20
8914;DHT22;4492;48.736;9.092;2023-03-01T13:13:01;6.20;90.60
8914;DHT22;4492;48.736;9.092;2023-03-01T13:15:36;6.30;90.30
8914;DHT22;4492;48.736;9.092;2023-03-01T13:20:48;6.30;90.00
8914;DHT22;4492;48.736;9.092;2023-03-01T13:26:13;6.40;90.00
8914;DHT22;4492;48.736;9.092;2023-03-01T13:34:01;6.50;89.80
8914;DHT22;4492;48.736;9.092;2023-03-01T13:39:30;6.70;88.60
8914;DHT22;4492;48.736;9.092;2023-03-01T13:41:50;6.70;88.80
8914;DHT22;4492;48.736;9.092;2023-03-01T13:44:35;6.70;89.30
8914;DHT22;4492;48.736;9.092;2023-03-01T13:47:16;6.70;89.10
8914;DHT22;4492;48.736;9.092;2023-03-01T13:49:59;6.80;89.80
8914;DHT22;4492;48.736;9.092;2023-03-01T13:58:30;7.00;88.10
8914;DHT22;4492;48.736;9.092;2023-03-01T14:03:25;6.90;87.30
8914;DHT22;4492;48.736;9.092;2023-03-01T14:06:21;6.80;87.70
8914;DHT22;4492;48.736;9.092;2023-03-01T14:08:48;6.70;87.70
8914;DHT22;4492;48.736;9.092;2023-03-01T14:11:43;6.60;88.40
8914;DHT22;4492;48.736;9.092;2023-03-01T14:14:27;6.70;88.80
8914;DHT22;4492;48.736;9.092;2023-03-01T14:19:55;6.70;88.50
8914;DHT22;4492;48.736;9.092;2023-03-01T14:22:30;6.60;88.40
8914;DHT22;4492;48.736;9.092;2023-03-01T14:25:25;6.50;88.40
8914;DHT22;4492;48.736;9.092;2023-03-01T14:28:16;6.40;88.80
8914;DHT22;4492;48.736;9.092;2023-03-01T14:30:48;6.40;89.40
8914;DHT22;4492;48.736;9.092;2023-03-01T14:33:27;6.30;90.10
8914;DHT22;4492;48.736;9.092;2023-03-01T14:36:34;6.20;90.10
8914;DHT22;4492;48.736;9.092;2023-03-01T14:38:53;6.20;90.20
8914;DHT22;4492;48.736;9.092;2023-03-01T14:41:22;6.20;90.20
8914;DHT22;4492;48.736;9.092;2023-03-01T14:43:55;6.20;90.30
8914;DHT22;4492;48.736;9.092;2023-03-01T14:46:28;6.20;90.30
8914;DHT22;4492;48.736;9.092;2023-03-01T14:49:01;6.10;90.10
8914;DHT22;4492;48.736;9.092;2023-03-01T14:51:27;6.20;90.50
8914;DHT22;4492;48.736;9.092;2023-03-01T14:53:53;6.10;90.30
8914;DHT22;4492;48.736;9.092;2023-03-01T14:56:18;6.10;90.80
8914;DHT22;4492;48.736;9.092;2023-03-01T14:58:45;6.10;90.80
8914;DHT22;4492;48.736;9.092;2023-03-01T15:01:15;6.10;90.80
8914;DHT22;4492;48.736;9.092;2023-03-01T15:03:44;6.00;91.00
8914;DHT22;4492;48.736;9.092;2023-03-01T15:06:10;6.00;91.00
8914;DHT22;4492;48.736;9.092;2023-03-01T15:08:42;6.00;91.10
8914;DHT22;4492;48.736;9.092;2023-03-01T15:11:23;6.00;91.00
8914;DHT22;4492;48.736;9.092;2023-03-01T15:13:50;6.00;91.30
8914;DHT22;4492;48.736;9.092;2023-03-01T15:18:46;6.00;91.30
8914;DHT22;4492;48.736;9.092;2023-03-01T15:21:24;6.00;91.20
8914;DHT22;4492;48.736;9.092;2023-03-01T15:23:53;6.00;91.20
8914;DHT22;4492;48.736;9.092;2023-03-01T15:26:58;5.90;91.30
8914;DHT22;4492;48.736;9.092;2023-03-01T15:29:29;5.90;91.20
8914;DHT22;4492;48.736;9.092;2023-03-01T15:31:59;5.80;91.40
8914;DHT22;4492;48.736;9.092;2023-03-01T15:34:33;5.80;91.70
8914;DHT22;4492;48.736;9.092;2023-03-01T15:37:01;5.80;91.60
8914;DHT22;4492;48.736;9.092;2023-03-01T15:39:41;5.80;91.50
8914;DHT22;4492;48.736;9.092;2023-03-01T15:44:43;5.70;91.60
8914;DHT22;4492;48.736;9.092;2023-03-01T15:47:31;5.70;91.80
8914;DHT22;4492;48.736;9.092;2023-03-01T15:49:57;5.60;91.90
8914;DHT22;4492;48.736;9.092;2023-03-01T15:52:35;5.60;92.10
8914;DHT22;4492;48.736;9.092;2023-03-01T15:55:14;5.50;92.00
8914;DHT22;4492;48.736;9.092;2023-03-01T15:57:40;5.60;92.00
8914;DHT22;4492;48.736;9.092;2023-03-01T16:00:09;5.60;91.80
8914;DHT22;4492;48.736;9.092;2023-03-01T16:02:39;5.60;91.90
8914;DHT22;4492;48.736;9.092;2023-03-01T16:05:10;5.50;92.00
8914;DHT22;4492;48.736;9.092;2023-03-01T16:07:41;5.50;92.00
8914;DHT22;4492;48.736;9.092;2023-03-01T16:10:07;5.40;92.00
8914;DHT22;4492;48.736;9.092;2023-03-01T16:12:33;5.30;92.10
8914;DHT22;4492;48.736;9.092;2023-03-01T16:14:58;5.30;92.10
8914;DHT22;4492;48.736;9.092;2023-03-01T16:17:24;5.20;92.30
8914;DHT22;4492;48.736;9.092;2023-03-01T16:19:51;5.10;92.30
8914;DHT22;4492;48.736;9.092;2023-03-01T16:22:17;5.10;92.30
8914;DHT22;4492;48.736;9.092;2023-03-01T16:24:46;5.10;92.30
8914;DHT22;4492;48.736;9.092;2023-03-01T16:27:11;5.10;92.10
8914;DHT22;4492;48.736;9.092;2023-03-01T16:29:37;5.00;92.30
8914;DHT22;4492;48.736;9.092;2023-03-01T16:32:02;4.90;92.50
8914;DHT22;4492;48.736;9.092;2023-03-01T16:34:28;4.80;92.60
8914;DHT22;4492;48.736;9.092;2023-03-01T16:36:54;4.80;92.60
8914;DHT22;4492;48.736;9.092;2023-03-01T16:39:19;4.80;92.80
8914;DHT22;4492;48.736;9.092;2023-03-01T16:41:44;4.70;92.80
8914;DHT22;4492;48.736;9.092;2023-03-01T16:44:10;4.60;92.90
8914;DHT22;4492;48.736;9.092;2023-03-01T16:46:36;4.60;93.00
8914;DHT22;4492;48.736;9.092;2023-03-01T16:49:01;4.60;93.10
8914;DHT22;4492;48.736;9.092;2023-03-01T16:51:28;4.50;93.20
8914;DHT22;4492;48.736;9.092;2023-03-01T16:53:55;4.50;93.30
8914;DHT22;4492;48.736;9.092;2023-03-01T16:56:20;4.40;93.40
8914;DHT22;4492;48.736;9.092;2023-03-01T16:58:46;4.40;93.50
8914;DHT22;4492;48.736;9.092;2023-03-01T17:01:17;4.30;94.50
8914;DHT22;4492;48.736;9.092;2023-03-01T17:03:45;4.20;94.10
8914;DHT22;4492;48.736;9.092;2023-03-01T17:06:14;4.10;94.20
8914;DHT22;4492;48.736;9.092;2023-03-01T17:08:40;3.90;94.30
8914;DHT22;4492;48.736;9.092;2023-03-01T17:11:12;3.90;94.50
8914;DHT22;4492;48.736;9.092;2023-03-01T17:13:38;3.90;94.60
8914;DHT22;4492;48.736;9.092;2023-03-01T17:16:05;3.80;94.70
8914;DHT22;4492;48.736;9.092;2023-03-01T17:18:31;3.80;94.80
8914;DHT22;4492;48.736;9.092;2023-03-01T17:20:57;3.70;95.10
8914;DHT22;4492;48.736;9.092;2023-03-01T17:23:23;3.60;95.20
8914;DHT22;4492;48.736;9.092;2023-03-01T17:25:49;3.50;95.40
8914;DHT22;4492;48.736;9.092;2023-03-01T17:28:15;3.50;95.50
8914;DHT22;4492;48.736;9.092;2023-03-01T17:30:42;3.40;95.70
8914;DHT22;4492;48.736;9.092;2023-03-01T17:33:09;3.30;96.10
8914;DHT22;4492;48.736;9.092;2023-03-01T17:35:35;3.20;96.20
8914;DHT22;4492;48.736;9.092;2023-03-01T17:38:05;3.10;96.30
8914;DHT22;4492;48.736;9.092;2023-03-01T17:40:31;3.00;96.50
8914;DHT22;4492;48.736;9.092;2023-03-01T17:42:57;3.00;96.60
8914;DHT22;4492;48.736;9.092;2023-03-01T17:45:22;3.00;96.60
8914;DHT22;4492;48.736;9.092;2023-03-01T17:47:48;3.00;97.00